createdAt,value
2022-07-27T00:01:51.360Z,96571.19
2022-07-27T00:04:48.670Z,96567.09
2022-07-27T00:07:45.835Z,96563.94
2022-07-27T00:10:42.712Z,96562.63
2022-07-27T00:13:40.745Z,96559.75
2022-07-27T00:16:37.781Z,96560.09
2022-07-27T00:19:34.716Z,96559.41
2022-07-27T00:22:32.003Z,96557.22
2022-07-27T00:25:28.930Z,96558.84
2022-07-27T00:28:25.852Z,96562.50
2022-07-27T00:31:22.810Z,96570.94
2022-07-27T00:34:19.701Z,96576.34
2022-07-27T00:37:16.657Z,96575.47
2022-07-27T00:40:13.748Z,96570.75
2022-07-27T00:43:10.591Z,96573.81
2022-07-27T00:46:07.430Z,96570.81
2022-07-27T00:49:05.275Z,96561.81
2022-07-27T00:52:02.455Z,96568.06
2022-07-27T00:55:00.106Z,96567.78
2022-07-27T00:57:59.455Z,96570.41
2022-07-27T01:00:56.726Z,96565.84
2022-07-27T01:03:53.628Z,96567.44
2022-07-27T01:06:53.446Z,96558.19
2022-07-27T01:09:59.843Z,96568.84
2022-07-27T01:12:57.081Z,96573.63
2022-07-27T01:15:55.140Z,96565.31
2022-07-27T01:18:52.035Z,96566.16
2022-07-27T01:21:48.891Z,96571.81
2022-07-27T01:24:45.909Z,96564.00
2022-07-27T01:27:42.758Z,96567.75
2022-07-27T01:30:39.603Z,96554.53
2022-07-27T01:33:37.181Z,96556.53
2022-07-27T01:36:34.026Z,96562.94
2022-07-27T01:39:32.405Z,96563.59
2022-07-27T01:42:29.297Z,96570.41
2022-07-27T01:45:26.208Z,96565.72
2022-07-27T01:48:23.062Z,96560.47
2022-07-27T01:51:19.999Z,96555.47
2022-07-27T01:54:17.981Z,96554.97
2022-07-27T01:57:14.928Z,96550.56
2022-07-27T02:00:12.409Z,96553.75
2022-07-27T02:03:11.194Z,96547.13
2022-07-27T02:06:08.846Z,96541.81
2022-07-27T02:09:06.309Z,96543.94
2022-07-27T02:12:21.702Z,96545.53
2022-07-27T02:15:22.487Z,96562.91
2022-07-27T02:18:32.988Z,96576.94
2022-07-27T02:21:33.414Z,96591.63
2022-07-27T02:24:30.263Z,96608.06
2022-07-27T02:27:27.487Z,96584.78
2022-07-27T02:30:24.318Z,96577.91
2022-07-27T02:33:21.265Z,96586.66
2022-07-27T02:36:18.453Z,96609.78
2022-07-27T02:39:15.545Z,96601.78
2022-07-27T02:42:12.405Z,96588.25
2022-07-27T02:45:10.722Z,96586.00
2022-07-27T02:48:08.511Z,96595.44
2022-07-27T02:51:05.463Z,96584.97
2022-07-27T02:54:02.622Z,96570.47
2022-07-27T02:57:04.981Z,96580.50
2022-07-27T03:00:02.218Z,96580.97
2022-07-27T03:02:59.066Z,96570.59
2022-07-27T03:05:55.904Z,96569.06
2022-07-27T03:08:52.783Z,96576.34
2022-07-27T03:11:49.641Z,96570.97
2022-07-27T03:14:46.996Z,96566.72
2022-07-27T03:17:46.076Z,96575.38
2022-07-27T03:20:44.219Z,96585.81
2022-07-27T03:23:41.603Z,96574.47
2022-07-27T03:26:38.547Z,96571.88
2022-07-27T03:29:35.403Z,96568.59
2022-07-27T03:32:32.256Z,96574.91
2022-07-27T03:35:29.103Z,96575.78
2022-07-27T03:38:25.975Z,96578.91
2022-07-27T03:41:22.982Z,96578.00
2022-07-27T03:44:19.812Z,96579.47
2022-07-27T03:47:16.643Z,96573.69
2022-07-27T03:50:13.473Z,96597.19
2022-07-27T03:53:10.330Z,96580.13
2022-07-27T03:56:07.227Z,96580.28
2022-07-27T03:59:04.142Z,96582.78
2022-07-27T04:02:01.111Z,96567.84
2022-07-27T04:04:58.133Z,96582.88
2022-07-27T04:07:55.137Z,96590.00
2022-07-27T04:10:52.063Z,96581.38
2022-07-27T04:13:50.541Z,96585.19
2022-07-27T04:16:47.571Z,96581.72
2022-07-27T04:19:44.572Z,96585.72
2022-07-27T04:22:41.540Z,96583.28
2022-07-27T04:25:38.480Z,96594.88
2022-07-27T04:28:35.493Z,96587.97
2022-07-27T04:31:32.689Z,96587.00
2022-07-27T04:34:29.506Z,96591.06
2022-07-27T04:37:26.367Z,96591.41
2022-07-27T04:40:23.359Z,96608.47
2022-07-27T04:43:20.185Z,96594.78
2022-07-27T04:46:17.808Z,96584.38
2022-07-27T04:49:14.982Z,96588.94
2022-07-27T04:52:16.145Z,96592.06
2022-07-27T04:55:13.470Z,96593.59
2022-07-27T04:58:11.180Z,96589.22
2022-07-27T05:01:10.839Z,96594.41
2022-07-27T05:04:07.937Z,96598.41
2022-07-27T05:07:04.814Z,96602.78
2022-07-27T05:10:01.661Z,96604.66
2022-07-27T05:12:58.645Z,96599.53
2022-07-27T05:15:56.109Z,96596.50
2022-07-27T05:18:53.045Z,96601.88
2022-07-27T05:21:50.518Z,96600.16
2022-07-27T05:24:47.357Z,96606.50
2022-07-27T05:27:53.882Z,96616.28
2022-07-27T05:30:51.776Z,96619.75
2022-07-27T05:33:51.338Z,96617.19
2022-07-27T05:36:50.259Z,96626.66
2022-07-27T05:39:47.254Z,96627.72
2022-07-27T05:42:44.234Z,96630.41
2022-07-27T05:45:41.193Z,96633.94
2022-07-27T05:48:38.104Z,96642.28
2022-07-27T05:51:35.320Z,96654.38
2022-07-27T05:54:32.188Z,96647.47
2022-07-27T05:57:29.290Z,96657.78
2022-07-27T06:00:26.202Z,96650.34
2022-07-27T06:03:23.902Z,96658.13
2022-07-27T06:06:39.616Z,96653.00
2022-07-27T06:09:36.573Z,96670.81
2022-07-27T06:12:44.482Z,96664.47
2022-07-27T06:15:41.470Z,96662.66
2022-07-27T06:18:38.404Z,96670.97
2022-07-27T06:21:35.297Z,96666.34
2022-07-27T06:24:32.752Z,96666.25
2022-07-27T06:27:29.824Z,96664.25
2022-07-27T06:30:27.688Z,96669.91
2022-07-27T06:33:31.636Z,96677.22
2022-07-27T06:36:28.556Z,96671.50
2022-07-27T06:39:25.931Z,96668.88
2022-07-27T06:42:22.774Z,96675.50
2022-07-27T06:45:19.711Z,96672.09
2022-07-27T06:48:17.324Z,96680.28
2022-07-27T06:51:14.211Z,96676.91
2022-07-27T06:54:11.992Z,96670.00
2022-07-27T06:57:08.830Z,96673.53
2022-07-27T07:00:07.204Z,96673.50
2022-07-27T07:03:06.008Z,96674.09
2022-07-27T07:06:03.237Z,96672.78
2022-07-27T07:09:00.562Z,96672.06
2022-07-27T07:11:57.472Z,96671.38
2022-07-27T07:14:54.320Z,96662.47
2022-07-27T07:17:51.208Z,96670.81
2022-07-27T07:20:48.119Z,96686.25
2022-07-27T07:23:45.003Z,96684.31
2022-07-27T07:26:42.004Z,96690.31
2022-07-27T07:29:38.965Z,96692.84
2022-07-27T07:32:35.839Z,96687.72
2022-07-27T07:35:32.911Z,96680.97
2022-07-27T07:38:29.762Z,96681.06
2022-07-27T07:41:26.669Z,96681.38
2022-07-27T07:44:23.534Z,96691.28
2022-07-27T07:47:20.553Z,96696.34
2022-07-27T07:50:18.643Z,96687.56
2022-07-27T07:53:16.048Z,96682.91
2022-07-27T07:56:14.207Z,96678.63
2022-07-27T07:59:11.624Z,96681.22
2022-07-27T08:02:08.821Z,96669.50
2022-07-27T08:05:06.555Z,96673.72
2022-07-27T08:08:03.570Z,96667.09
2022-07-27T08:11:00.443Z,96669.59
2022-07-27T08:13:57.415Z,96682.13
2022-07-27T08:16:54.246Z,96684.47
2022-07-27T08:19:51.113Z,96682.56
2022-07-27T08:22:48.033Z,96687.53
2022-07-27T08:25:45.407Z,96692.88
2022-07-27T08:28:42.305Z,96693.47
2022-07-27T08:31:52.794Z,96699.72
2022-07-27T08:34:50.438Z,96698.44
2022-07-27T08:37:47.959Z,96702.22
2022-07-27T08:40:49.266Z,96705.13
2022-07-27T08:43:49.147Z,96700.28
2022-07-27T08:46:46.484Z,96689.50
2022-07-27T08:49:44.508Z,96691.84
2022-07-27T08:52:41.495Z,96702.34
2022-07-27T08:55:42.077Z,96688.16
2022-07-27T08:58:38.873Z,96690.16
2022-07-27T09:01:36.523Z,96693.59
2022-07-27T09:04:33.616Z,96684.69
2022-07-27T09:07:32.060Z,96683.50
2022-07-27T09:10:32.524Z,96687.31
2022-07-27T09:13:33.552Z,96689.00
2022-07-27T09:16:58.106Z,96685.09
2022-07-27T09:20:00.462Z,96684.81
2022-07-27T09:22:57.322Z,96691.63
2022-07-27T09:26:31.326Z,96685.25
2022-07-27T09:29:34.654Z,96693.13
2022-07-27T09:32:31.823Z,96692.59
2022-07-27T09:35:34.699Z,96696.97
2022-07-27T09:38:31.652Z,96693.88
2022-07-27T09:41:55.669Z,96687.06
2022-07-27T09:44:56.491Z,96686.00
2022-07-27T09:47:54.018Z,96685.94
2022-07-27T09:51:02.691Z,96671.19
2022-07-27T09:54:10.709Z,96676.72
2022-07-27T09:57:07.953Z,96669.66
2022-07-27T10:00:13.882Z,96681.28
2022-07-27T10:03:11.089Z,96672.09
2022-07-27T10:06:09.834Z,96675.03
2022-07-27T10:09:06.789Z,96670.94
2022-07-27T10:12:04.796Z,96662.63
2022-07-27T10:15:01.774Z,96660.88
2022-07-27T10:18:12.513Z,96668.59
2022-07-27T10:21:11.529Z,96664.34
2022-07-27T10:24:39.420Z,96661.59
2022-07-27T10:27:36.284Z,96658.56
2022-07-27T10:30:34.814Z,96657.75
2022-07-27T10:33:44.474Z,96661.84
2022-07-27T10:36:51.792Z,96660.56
2022-07-27T10:40:16.939Z,96665.88
2022-07-27T10:43:22.412Z,96669.66
2022-07-27T10:46:21.097Z,96654.66
2022-07-27T10:49:24.735Z,96643.78
2022-07-27T10:52:56.031Z,96665.59
2022-07-27T10:55:52.994Z,96667.03
2022-07-27T10:58:51.506Z,96662.88
2022-07-27T11:01:58.341Z,96660.91
2022-07-27T11:04:55.379Z,96650.00
2022-07-27T11:08:23.608Z,96654.03
2022-07-27T11:11:20.852Z,96646.09
2022-07-27T11:14:18.945Z,96659.72
2022-07-27T11:17:50.836Z,96657.75
2022-07-27T11:20:40.612Z,96646.16
2022-07-27T11:23:52.657Z,96666.19
2022-07-27T11:26:52.783Z,96660.28
2022-07-27T11:29:49.637Z,96652.75
2022-07-27T11:32:46.516Z,96647.56
2022-07-27T11:35:54.177Z,96653.69
2022-07-27T11:38:55.139Z,96655.16
2022-07-27T11:42:11.840Z,96648.84
2022-07-27T11:45:09.656Z,96651.72
2022-07-27T11:48:17.787Z,96647.97
2022-07-27T11:51:18.218Z,96656.97
2022-07-27T11:54:27.686Z,96649.59
2022-07-27T11:57:33.807Z,96654.28
2022-07-27T12:00:41.866Z,96653.06
2022-07-27T12:03:47.108Z,96650.00
2022-07-27T12:07:05.730Z,96652.13
2022-07-27T12:10:07.031Z,96660.03
2022-07-27T12:13:03.999Z,96652.41
2022-07-27T12:16:01.032Z,96652.78
2022-07-27T12:18:57.911Z,96645.03
2022-07-27T12:21:56.132Z,96647.59
2022-07-27T12:24:54.454Z,96644.88
2022-07-27T12:28:07.646Z,96638.38
2022-07-27T12:31:17.964Z,96637.56
2022-07-27T12:34:15.416Z,96631.59
2022-07-27T12:37:13.603Z,96634.84
2022-07-27T12:40:18.109Z,96619.38
2022-07-27T12:43:23.689Z,96624.31
2022-07-27T12:46:20.653Z,96636.81
2022-07-27T12:49:17.981Z,96648.56
2022-07-27T12:52:16.226Z,96647.75
2022-07-27T12:55:15.893Z,96655.75
2022-07-27T12:58:14.318Z,96658.59
2022-07-27T13:01:11.291Z,96658.94
2022-07-27T13:04:08.678Z,96660.88
2022-07-27T13:07:05.535Z,96665.19
2022-07-27T13:10:04.809Z,96650.00
2022-07-27T13:13:01.685Z,96651.94
2022-07-27T13:15:58.573Z,96652.72
2022-07-27T13:18:55.419Z,96651.22
2022-07-27T13:21:52.387Z,96657.63
2022-07-27T13:24:49.306Z,96655.22
2022-07-27T13:27:47.945Z,96645.72
2022-07-27T13:30:45.131Z,96642.41
2022-07-27T13:33:42.011Z,96636.28
2022-07-27T13:36:40.698Z,96634.03
2022-07-27T13:39:37.697Z,96627.91
2022-07-27T13:42:34.711Z,96635.50
2022-07-27T13:45:42.256Z,96636.59
2022-07-27T13:48:40.551Z,96631.03
2022-07-27T13:51:37.438Z,96643.41
2022-07-27T13:54:34.286Z,96635.28
2022-07-27T13:57:31.143Z,96637.81
2022-07-27T14:00:28.072Z,96641.53
2022-07-27T14:03:24.977Z,96628.66
2022-07-27T14:06:24.011Z,96632.97
2022-07-27T14:09:42.546Z,96627.78
2022-07-27T14:12:39.531Z,96615.09
2022-07-27T14:15:50.736Z,96627.41
2022-07-27T14:18:53.050Z,96633.34
2022-07-27T14:21:49.902Z,96627.97
2022-07-27T14:24:46.772Z,96623.47
2022-07-27T14:27:43.715Z,96612.22
2022-07-27T14:30:40.662Z,96624.81
2022-07-27T14:33:39.743Z,96627.22
2022-07-27T14:36:37.395Z,96626.72
2022-07-27T14:39:34.261Z,96631.13
2022-07-27T14:42:31.437Z,96628.19
2022-07-27T14:45:45.043Z,96627.25
2022-07-27T14:49:05.266Z,96620.72
2022-07-27T14:52:00.200Z,96619.34
2022-07-27T14:54:59.624Z,96611.00
2022-07-27T14:57:56.460Z,96609.81
2022-07-27T15:00:53.643Z,96602.63
2022-07-27T15:03:50.691Z,96601.88
2022-07-27T15:06:47.554Z,96602.03
2022-07-27T15:09:44.727Z,96601.47
2022-07-27T15:12:41.766Z,96613.50
2022-07-27T15:15:38.734Z,96601.44
2022-07-27T15:18:38.657Z,96610.22
2022-07-27T15:21:36.033Z,96604.59
2022-07-27T15:24:37.961Z,96601.66
2022-07-27T15:27:35.826Z,96609.38
2022-07-27T15:30:37.883Z,96600.56
2022-07-27T15:33:35.971Z,96597.63
2022-07-27T15:36:36.263Z,96593.34
2022-07-27T15:39:37.638Z,96590.84
2022-07-27T15:42:37.791Z,96594.00
2022-07-27T15:45:38.895Z,96586.41
2022-07-27T15:48:35.935Z,96586.44
2022-07-27T15:51:32.947Z,96587.28
2022-07-27T15:54:33.412Z,96591.09
2022-07-27T15:57:31.734Z,96593.91
2022-07-27T16:00:28.962Z,96591.06
2022-07-27T16:03:26.149Z,96586.22
2022-07-27T16:06:23.886Z,96589.56
2022-07-27T16:09:20.847Z,96585.34
2022-07-27T16:12:19.461Z,96578.78
2022-07-27T16:15:16.388Z,96580.44
2022-07-27T16:18:13.360Z,96580.66
2022-07-27T16:21:10.206Z,96571.50
2022-07-27T16:24:07.545Z,96572.63
2022-07-27T16:27:06.561Z,96566.97
2022-07-27T16:30:04.853Z,96561.91
2022-07-27T16:33:03.423Z,96563.78
2022-07-27T16:36:00.494Z,96575.66
2022-07-27T16:38:57.346Z,96575.28
2022-07-27T16:41:54.988Z,96575.16
2022-07-27T16:44:51.854Z,96582.25
2022-07-27T16:47:48.782Z,96575.72
2022-07-27T16:50:45.632Z,96582.22
2022-07-27T16:53:45.889Z,96574.47
2022-07-27T16:56:42.764Z,96574.81
2022-07-27T16:59:41.553Z,96576.81
2022-07-27T17:02:38.397Z,96582.13
2022-07-27T17:05:35.508Z,96590.34
2022-07-27T17:08:32.362Z,96589.13
2022-07-27T17:11:29.363Z,96597.19
2022-07-27T17:14:26.208Z,96602.41
2022-07-27T17:17:23.091Z,96596.88
2022-07-27T17:20:28.020Z,96594.88
2022-07-27T17:23:37.755Z,96600.44
2022-07-27T17:26:35.101Z,96604.41
2022-07-27T17:29:31.935Z,96603.81
2022-07-27T17:32:28.767Z,96608.47
2022-07-27T17:35:25.669Z,96606.97
2022-07-27T17:38:22.605Z,96613.56
2022-07-27T17:41:24.662Z,96609.75
2022-07-27T17:44:22.654Z,96603.72
2022-07-27T17:47:19.496Z,96604.38
2022-07-27T17:50:16.351Z,96609.75
2022-07-27T17:53:13.214Z,96606.56
2022-07-27T17:56:11.074Z,96613.69
2022-07-27T17:59:34.617Z,96608.56
2022-07-27T18:02:25.030Z,96610.81
2022-07-27T18:05:21.948Z,96615.13
2022-07-27T18:08:19.026Z,96608.28
2022-07-27T18:11:16.281Z,96611.06
2022-07-27T18:14:13.402Z,96615.72
2022-07-27T18:17:10.282Z,96616.38
2022-07-27T18:20:09.822Z,96612.34
2022-07-27T18:23:06.978Z,96610.38
2022-07-27T18:26:03.921Z,96608.63
2022-07-27T18:29:00.861Z,96609.97
2022-07-27T18:31:57.702Z,96618.94
2022-07-27T18:34:55.539Z,96620.53
2022-07-27T18:37:52.854Z,96629.66
2022-07-27T18:40:50.341Z,96626.34
2022-07-27T18:43:53.538Z,96627.16
2022-07-27T18:46:50.371Z,96621.50
2022-07-27T18:49:47.217Z,96627.16
2022-07-27T18:52:44.100Z,96632.59
2022-07-27T18:55:40.955Z,96637.03
2022-07-27T18:58:38.177Z,96638.34
2022-07-27T19:01:35.368Z,96644.09
2022-07-27T19:04:32.338Z,96640.31
2022-07-27T19:07:30.814Z,96647.56
2022-07-27T19:10:29.860Z,96658.28
2022-07-27T19:13:26.798Z,96659.28
2022-07-27T19:16:24.949Z,96662.56
2022-07-27T19:19:23.328Z,96668.03
2022-07-27T19:22:20.974Z,96672.56
2022-07-27T19:25:17.824Z,96687.78
2022-07-27T19:28:18.898Z,96683.78
2022-07-27T19:31:22.781Z,96690.06
2022-07-27T19:34:20.907Z,96698.16
2022-07-27T19:37:17.794Z,96700.75
2022-07-27T19:40:42.695Z,96697.38
2022-07-27T19:43:33.624Z,96699.19
2022-07-27T19:46:30.656Z,96701.69
2022-07-27T19:49:28.397Z,96705.06
2022-07-27T19:52:25.314Z,96714.25
2022-07-27T19:55:22.147Z,96710.25
2022-07-27T19:58:19.079Z,96718.09
2022-07-27T20:01:16.462Z,96724.72
2022-07-27T20:04:13.347Z,96736.66
2022-07-27T20:07:10.337Z,96744.53
2022-07-27T20:10:07.534Z,96738.25
2022-07-27T20:13:05.200Z,96746.31
2022-07-27T20:16:02.400Z,96744.66
2022-07-27T20:19:00.222Z,96751.19
2022-07-27T20:21:57.496Z,96750.66
2022-07-27T20:24:54.315Z,96751.47
2022-07-27T20:27:52.306Z,96747.59
2022-07-27T20:30:49.305Z,96747.13
2022-07-27T20:33:46.410Z,96747.41
2022-07-27T20:36:43.264Z,96751.09
2022-07-27T20:39:40.340Z,96749.56
2022-07-27T20:42:41.524Z,96756.28
2022-07-27T20:45:38.543Z,96756.16
2022-07-27T20:48:35.478Z,96757.00
2022-07-27T20:51:32.369Z,96751.31
2022-07-27T20:54:29.812Z,96753.38
2022-07-27T20:57:26.901Z,96759.69
2022-07-27T21:00:27.256Z,96758.75
2022-07-27T21:03:26.478Z,96766.09
2022-07-27T21:06:23.312Z,96763.78
2022-07-27T21:09:21.831Z,96763.31
2022-07-27T21:12:19.182Z,96761.63
2022-07-27T21:15:16.595Z,96775.25
2022-07-27T21:18:13.435Z,96774.28
2022-07-27T21:21:10.298Z,96771.59
2022-07-27T21:24:17.557Z,96776.53
2022-07-27T21:27:15.425Z,96770.56
2022-07-27T21:30:16.607Z,96771.34
2022-07-27T21:33:13.549Z,96778.13
2022-07-27T21:36:10.468Z,96775.75
2022-07-27T21:39:07.330Z,96771.50
2022-07-27T21:42:04.342Z,96774.97
2022-07-27T21:45:01.560Z,96772.56
2022-07-27T21:47:58.458Z,96785.44
2022-07-27T21:50:55.308Z,96778.63
2022-07-27T21:53:52.514Z,96781.13
2022-07-27T21:56:50.741Z,96788.72
2022-07-27T21:59:47.712Z,96789.97
2022-07-27T22:02:44.608Z,96784.97
2022-07-27T22:05:41.492Z,96787.28
2022-07-27T22:08:38.939Z,96790.47
2022-07-27T22:11:35.797Z,96791.72
2022-07-27T22:14:32.722Z,96796.31
2022-07-27T22:17:29.538Z,96801.69
2022-07-27T22:20:26.393Z,96793.50
2022-07-27T22:23:23.892Z,96794.75
2022-07-27T22:26:20.758Z,96793.78
2022-07-27T22:29:17.645Z,96796.28
2022-07-27T22:32:14.542Z,96797.84
2022-07-27T22:35:11.476Z,96806.69
2022-07-27T22:38:08.334Z,96803.41
2022-07-27T22:41:05.318Z,96802.75
2022-07-27T22:44:02.251Z,96810.22
2022-07-27T22:46:59.086Z,96809.75
2022-07-27T22:49:55.929Z,96806.09
2022-07-27T22:52:55.028Z,96816.63
2022-07-27T22:55:51.882Z,96809.56
2022-07-27T22:58:48.741Z,96810.16
2022-07-27T23:01:47.696Z,96803.84
2022-07-27T23:04:45.185Z,96800.50
2022-07-27T23:07:42.048Z,96801.38
2022-07-27T23:10:47.774Z,96806.94
2022-07-27T23:13:44.669Z,96800.47
2022-07-27T23:16:42.510Z,96804.22
2022-07-27T23:19:39.426Z,96801.06
2022-07-27T23:22:36.261Z,96799.81
2022-07-27T23:25:36.416Z,96799.81
2022-07-27T23:28:33.484Z,96802.19
2022-07-27T23:31:30.555Z,96808.31
2022-07-27T23:34:29.161Z,96807.34
2022-07-27T23:37:26.336Z,96812.72
2022-07-27T23:40:23.537Z,96807.03
2022-07-27T23:43:20.361Z,96813.00
2022-07-27T23:46:17.274Z,96807.63
2022-07-27T23:49:14.242Z,96808.72
2022-07-27T23:52:11.106Z,96808.19
2022-07-27T23:55:08.133Z,96810.28
2022-07-27T23:58:04.971Z,96802.66
